Time;durP1;ratioP1;P1;durP2;ratioP2;P2;SDS_P1;SDS_P2;PMS_P1;PMS_P2;Temp;Humidity;BMP_temperature;BMP_pressure;BME280_temperature;BME280_humidity;BME280_pressure;Samples;Min_cycle;Max_cycle;Signal;HPM_P1;HPM_P2
2023/04/12 00:10:12;;;;;;;32.57;23.83;;;8.40;99.90;;;;;;4620072;30;20421;-83
2023/04/12 00:35:23;;;;;;;34.13;22.97;;;8.90;99.90;;;;;;4546112;30;20314;-85
2023/04/12 00:55:51;;;;;;;23.67;16.27;;;8.30;99.90;;;;;;4456020;30;20229;-83
2023/04/12 01:16:21;;;;;;;24.87;16.43;;;8.30;99.90;;;;;;4572511;30;20256;-83
2023/04/12 01:41:03;;;;;;;26.73;18.70;;;8.50;99.90;;;;;;4565344;30;20516;-86
2023/04/12 02:01:47;;;;;;;24.60;17.00;;;8.60;99.90;;;;;;4555424;30;20563;-83
2023/04/12 02:21:57;;;;;;;20.07;15.67;;;8.50;99.90;;;;;;4418236;31;20576;-84
2023/04/12 03:58:22;;;;;;;27.27;18.10;;;8.50;99.90;;;;;;4622487;30;20193;-86
2023/04/12 04:29:00;;;;;;;33.70;21.37;;;8.60;99.90;;;;;;4627482;30;20223;-84
2023/04/12 05:04:32;;;;;;;26.33;18.43;;;8.70;99.90;;;;;;4631107;30;20232;-85
2023/04/12 05:34:58;;;;;;;30.40;19.90;;;9.30;99.90;;;;;;4654688;29;20234;-83
2023/04/12 06:00:16;;;;;;;32.33;21.40;;;9.50;99.90;;;;;;4477719;30;20233;-84
2023/04/12 06:25:38;;;;;;;28.27;19.40;;;9.70;99.90;;;;;;4431517;31;20618;-84
2023/04/12 06:51:13;;;;;;;28.67;20.00;;;9.90;99.90;;;;;;4653088;29;21038;-84
2023/04/12 07:11:06;;;;;;;29.47;20.10;;;10.40;99.90;;;;;;4532043;30;20633;-82
2023/04/12 07:21:20;;;;;;;28.40;19.67;;;10.30;99.90;;;;;;5742540;23;20555;-85
2023/04/12 07:46:20;;;;;;;28.53;20.00;;;10.90;99.90;;;;;;4543948;30;20623;-87
2023/04/12 08:17:01;;;;;;;29.07;18.90;;;10.80;99.90;;;;;;4500864;30;20227;-85
2023/04/12 08:57:54;;;;;;;27.07;18.87;;;11.00;99.90;;;;;;4690249;29;20296;-86
2023/04/12 09:53:18;;;;;;;25.73;18.97;;;13.40;89.70;;;;;;4615637;30;20227;-86
2023/04/12 10:13:47;;;;;;;24.03;18.00;;;13.20;89.30;;;;;;4584133;30;20249;-86
2023/04/12 10:34:10;;;;;;;23.30;18.33;;;12.80;90.00;;;;;;4613514;30;20247;-86
2023/04/12 10:38:31;;;;;;;24.57;18.03;;;13.00;89.50;;;;;;4567882;30;20517;-88
2023/04/12 10:58:59;;;;;;;19.80;16.47;;;13.90;86.20;;;;;;4756904;29;20358;-88
2023/04/12 11:34:58;;;;;;;19.50;15.50;;;14.80;82.60;;;;;;4737143;29;20832;-87
2023/04/12 12:10:24;;;;;;;15.80;13.83;;;14.60;80.60;;;;;;4778681;29;20209;-88
2023/04/12 12:14:51;;;;;;;17.47;13.73;;;14.50;80.90;;;;;;4815744;29;20507;-89
2023/04/12 12:35:39;;;;;;;17.07;14.47;;;13.70;84.20;;;;;;4687201;30;20291;-85
2023/04/12 13:06:09;;;;;;;15.60;12.87;;;14.40;81.80;;;;;;4640311;30;20219;-87
2023/04/12 13:31:22;;;;;;;12.30;11.00;;;15.80;78.40;;;;;;4727670;29;20795;-87
2023/04/12 13:46:53;;;;;;;12.67;11.27;;;16.20;74.90;;;;;;4648417;30;20834;-89
2023/04/12 14:27:30;;;;;;;12.33;11.03;;;16.80;72.10;;;;;;4555051;30;20223;-86
2023/04/12 14:31:50;;;;;;;15.03;11.57;;;17.00;70.20;;;;;;4447709;30;20833;-85
2023/04/12 14:52:46;;;;;;;12.77;9.87;;;17.70;61.50;;;;;;4590097;30;20221;-85
2023/04/12 15:17:56;;;;;;;13.40;11.53;;;15.20;78.40;;;;;;4555089;30;20246;-86
2023/04/12 16:24:02;;;;;;;16.57;13.47;;;14.20;81.80;;;;;;4648008;30;20204;-89
2023/04/12 16:49:06;;;;;;;18.57;14.00;;;13.20;86.00;;;;;;4696185;29;21185;-85
2023/04/12 17:09:10;;;;;;;22.87;16.33;;;12.80;88.40;;;;;;4643037;30;20647;-87
2023/04/12 17:35:08;;;;;;;20.13;15.90;;;12.10;91.30;;;;;;4662591;29;20252;-85
2023/04/12 18:05:38;;;;;;;19.43;14.23;;;11.60;94.80;;;;;;4770593;29;20231;-86
2023/04/12 18:35:24;;;;;;;17.63;12.83;;;11.20;96.50;;;;;;4622857;30;20629;-86
2023/04/12 19:31:45;;;;;;;18.83;13.93;;;9.90;99.90;;;;;;4736389;30;20246;-87
2023/04/12 20:02:15;;;;;;;19.07;13.50;;;8.70;99.90;;;;;;4761471;29;20222;-86
2023/04/12 20:22:22;;;;;;;24.40;16.07;;;8.10;99.90;;;;;;4617994;30;20223;-86
2023/04/12 20:52:57;;;;;;;24.07;16.20;;;7.50;99.90;;;;;;4663646;30;20303;-85
2023/04/12 21:13:02;;;;;;;26.57;16.90;;;7.40;99.90;;;;;;4761573;29;20257;-85
2023/04/12 21:48:40;;;;;;;28.23;17.70;;;6.50;99.90;;;;;;4791887;29;20255;-85
2023/04/12 22:14:11;;;;;;;28.37;17.47;;;6.20;99.90;;;;;;4741997;29;20300;-83
2023/04/12 22:18:36;;;;;;;27.53;17.80;;;6.00;99.90;;;;;;4698075;30;21075;-85
2023/04/12 22:39:04;;;;;;;30.17;19.30;;;5.50;99.90;;;;;;4698498;29;20429;-87
2023/04/12 22:59:35;;;;;;;35.30;20.33;;;5.40;99.90;;;;;;4652802;30;21164;-87
2023/04/12 23:24:51;;;;;;;39.53;22.37;;;5.00;99.90;;;;;;4627732;30;20248;-85
2023/04/12 23:45:14;;;;;;;36.37;21.93;;;5.10;99.90;;;;;;4695093;30;20521;-84
